createdAt,value
2018-04-14T00:00:11.000Z,29.4
2018-04-14T00:02:11.000Z,29.3
2018-04-14T00:03:55.000Z,29.3
2018-04-14T00:05:11.000Z,29.3
2018-04-14T00:06:11.000Z,29.3
2018-04-14T00:08:11.000Z,29.3
2018-04-14T00:09:11.000Z,29.4
2018-04-14T00:11:11.000Z,29.4
2018-04-14T00:12:11.000Z,29.4
2018-04-14T00:13:11.000Z,29.5
2018-04-14T00:15:11.000Z,29.5
2018-04-14T00:17:11.000Z,29.5
2018-04-14T00:19:11.000Z,29.4
2018-04-14T00:21:11.000Z,29.4
2018-04-14T00:22:11.000Z,29.4
2018-04-14T00:23:11.000Z,29.4
2018-04-14T00:24:11.000Z,29.5
2018-04-14T00:25:56.000Z,29.5
2018-04-14T00:27:11.000Z,29.5
2018-04-14T00:28:11.000Z,29.5
2018-04-14T00:30:11.000Z,29.5
2018-04-14T00:31:11.000Z,29.5
2018-04-14T00:32:56.000Z,29.5
2018-04-14T00:34:11.000Z,29.5
2018-04-14T00:36:11.000Z,29.5
2018-04-14T00:37:11.000Z,29.4
2018-04-14T00:38:11.000Z,29.5
2018-04-14T00:40:11.000Z,29.5
2018-04-14T00:42:11.000Z,29.5
2018-04-14T00:43:11.000Z,29.5
2018-04-14T00:45:11.000Z,29.4
2018-04-14T00:47:11.000Z,29.4
2018-04-14T00:48:56.000Z,29.3
2018-04-14T00:50:11.000Z,29.3
2018-04-14T00:51:11.000Z,29.3
2018-04-14T00:52:11.000Z,29.3
2018-04-14T00:53:11.000Z,29.4
2018-04-14T00:55:11.000Z,29.4
2018-04-14T00:56:11.000Z,29.4
2018-04-14T00:58:11.000Z,29.4
2018-04-14T00:59:11.000Z,29.4
2018-04-14T01:00:11.000Z,29.5
2018-04-14T01:01:11.000Z,29.5
2018-04-14T01:02:11.000Z,29.5
2018-04-14T01:04:11.000Z,29.5
2018-04-14T01:05:11.000Z,29.5
2018-04-14T01:07:11.000Z,29.5
2018-04-14T01:08:11.000Z,29.5
2018-04-14T01:10:11.000Z,29.5
2018-04-14T01:12:11.000Z,29.5
2018-04-14T01:13:11.000Z,29.5
2018-04-14T01:15:11.000Z,29.5
2018-04-14T01:16:11.000Z,29.5
2018-04-14T01:18:11.000Z,29.4
2018-04-14T01:19:56.000Z,29.4
2018-04-14T01:21:11.000Z,29.3
2018-04-14T01:22:11.000Z,29.3
2018-04-14T01:23:11.000Z,29.3
2018-04-14T01:25:11.000Z,29.3
2018-04-14T01:26:11.000Z,29.3
2018-04-14T01:28:11.000Z,29.4
2018-04-14T01:30:11.000Z,29.3
2018-04-14T01:32:11.000Z,29.2
2018-04-14T01:34:11.000Z,29.2
2018-04-14T01:35:11.000Z,29.2
2018-04-14T01:37:11.000Z,29.2
2018-04-14T01:38:11.000Z,29.2
2018-04-14T01:40:11.000Z,29.2
2018-04-14T01:42:11.000Z,29.1
2018-04-14T01:44:11.000Z,29.1
2018-04-14T01:46:11.000Z,29.1
2018-04-14T01:47:11.000Z,29.2
2018-04-14T01:48:56.000Z,29.2
2018-04-14T01:50:11.000Z,29.2
2018-04-14T01:51:11.000Z,29.2
2018-04-14T01:52:11.000Z,29.3
2018-04-14T01:54:11.000Z,29.3
2018-04-14T01:55:11.000Z,29.3
2018-04-14T01:56:11.000Z,29.3
2018-04-14T01:58:11.000Z,29.4
2018-04-14T02:00:11.000Z,29.3
2018-04-14T02:02:11.000Z,29.2
2018-04-14T02:03:11.000Z,29.2
2018-04-14T02:04:11.000Z,29.3
2018-04-14T02:05:11.000Z,29.3
2018-04-14T02:07:11.000Z,29.4
2018-04-14T02:09:11.000Z,29.3
2018-04-14T02:10:11.000Z,29.3
2018-04-14T02:11:11.000Z,29.3
2018-04-14T02:13:11.000Z,29.3
2018-04-14T02:14:11.000Z,29.3
2018-04-14T02:15:11.000Z,29.4
2018-04-14T02:17:11.000Z,29.4
2018-04-14T02:19:11.000Z,29.4
2018-04-14T02:20:11.000Z,29.4
2018-04-14T02:21:11.000Z,29.4
2018-04-14T02:22:11.000Z,29.4
2018-04-14T02:24:11.000Z,29.4
2018-04-14T02:26:11.000Z,29.2
2018-04-14T02:27:11.000Z,29.2
2018-04-14T02:29:11.000Z,29.2
2018-04-14T02:31:11.000Z,29.1
2018-04-14T02:33:11.000Z,29.1
2018-04-14T02:35:11.000Z,29.1
2018-04-14T02:36:11.000Z,29.1
2018-04-14T02:37:55.000Z,29.1
2018-04-14T02:39:11.000Z,29.1
2018-04-14T02:40:11.000Z,29.2
2018-04-14T02:41:11.000Z,29.2
2018-04-14T02:43:11.000Z,29.2
2018-04-14T02:44:11.000Z,29.1
2018-04-14T02:45:11.000Z,29.2
2018-04-14T02:47:11.000Z,29.2
2018-04-14T02:49:11.000Z,29.2
2018-04-14T02:51:11.000Z,29.2
2018-04-14T02:52:11.000Z,29.2
2018-04-14T02:53:55.000Z,29.2
2018-04-14T02:55:11.000Z,29.2
2018-04-14T02:57:11.000Z,29.2
2018-04-14T02:58:11.000Z,29.2
2018-04-14T03:00:11.000Z,29.2
2018-04-14T03:01:11.000Z,29.1
2018-04-14T03:03:11.000Z,29.1
2018-04-14T03:04:11.000Z,29.1
2018-04-14T03:05:11.000Z,29.1
2018-04-14T03:07:11.000Z,29.2
2018-04-14T03:09:11.000Z,29.2
2018-04-14T03:11:11.000Z,29.2
2018-04-14T03:13:11.000Z,29.1
2018-04-14T03:15:11.000Z,29.1
2018-04-14T03:16:11.000Z,29.1
2018-04-14T03:17:11.000Z,29.1
2018-04-14T03:19:11.000Z,29.1
2018-04-14T03:20:11.000Z,29.1
2018-04-14T03:21:11.000Z,29.1
2018-04-14T03:22:11.000Z,29.2
2018-04-14T03:24:11.000Z,29.3
2018-04-14T03:25:11.000Z,29.3
2018-04-14T03:26:11.000Z,29.3
2018-04-14T03:27:11.000Z,29.4
2018-04-14T03:28:56.000Z,29.4
2018-04-14T03:30:11.000Z,29.3
2018-04-14T03:31:11.000Z,29.3
2018-04-14T03:32:11.000Z,29.3
2018-04-14T03:33:56.000Z,29.4
2018-04-14T03:35:11.000Z,29.3
2018-04-14T03:37:11.000Z,29.3
2018-04-14T03:39:11.000Z,29.2
2018-04-14T03:41:11.000Z,29.2
2018-04-14T03:42:11.000Z,29.1
2018-04-14T03:43:11.000Z,29.2
2018-04-14T03:44:11.000Z,29.3
2018-04-14T03:45:11.000Z,29.3
2018-04-14T03:47:11.000Z,29.3
2018-04-14T03:49:11.000Z,29.2
2018-04-14T03:50:11.000Z,29.2
2018-04-14T03:51:11.000Z,29.2
2018-04-14T03:53:11.000Z,29.2
2018-04-14T03:55:11.000Z,29.1
2018-04-14T03:56:11.000Z,29.1
2018-04-14T03:57:56.000Z,29.2
2018-04-14T03:59:11.000Z,29.1
2018-04-14T04:00:11.000Z,29.2
2018-04-14T04:02:11.000Z,29.1
2018-04-14T04:04:11.000Z,29.1
2018-04-14T04:06:11.000Z,29.1
2018-04-14T04:08:11.000Z,29
2018-04-14T04:09:11.000Z,29
2018-04-14T04:11:11.000Z,29
2018-04-14T04:13:11.000Z,29
2018-04-14T04:15:11.000Z,28.9
2018-04-14T04:17:11.000Z,28.9
2018-04-14T04:18:11.000Z,28.9
2018-04-14T04:20:11.000Z,29
2018-04-14T04:22:11.000Z,28.9
2018-04-14T04:24:11.000Z,28.9
2018-04-14T04:25:11.000Z,28.9
2018-04-14T04:26:11.000Z,29
2018-04-14T04:28:11.000Z,28.9
2018-04-14T04:30:11.000Z,28.9
2018-04-14T04:31:11.000Z,28.9
2018-04-14T04:32:11.000Z,28.9
2018-04-14T04:34:11.000Z,29
2018-04-14T04:35:11.000Z,29
2018-04-14T04:37:11.000Z,29
2018-04-14T04:39:11.000Z,29
2018-04-14T04:40:11.000Z,29
2018-04-14T04:42:11.000Z,29.1
2018-04-14T04:44:11.000Z,29
2018-04-14T04:46:11.000Z,29
2018-04-14T04:48:11.000Z,29
2018-04-14T04:50:11.000Z,28.9
2018-04-14T04:52:11.000Z,28.9
2018-04-14T04:53:11.000Z,28.9
2018-04-14T04:55:11.000Z,28.9
2018-04-14T04:57:11.000Z,28.9
2018-04-14T04:58:11.000Z,29
2018-04-14T05:00:11.000Z,29
2018-04-14T05:02:11.000Z,28.9
2018-04-14T05:03:11.000Z,28.9
2018-04-14T05:05:11.000Z,28.9
2018-04-14T05:07:11.000Z,28.9
2018-04-14T05:09:11.000Z,28.8
2018-04-14T05:11:11.000Z,28.8
2018-04-14T05:12:11.000Z,28.8
2018-04-14T05:14:11.000Z,28.9
2018-04-14T05:16:11.000Z,28.9
2018-04-14T05:18:11.000Z,28.9
2018-04-14T05:19:11.000Z,28.9
2018-04-14T05:20:55.000Z,29
2018-04-14T05:22:11.000Z,28.9
2018-04-14T05:24:11.000Z,28.9
2018-04-14T05:25:11.000Z,28.9
2018-04-14T05:26:11.000Z,29
2018-04-14T05:28:11.000Z,29
2018-04-14T05:29:11.000Z,29
2018-04-14T05:31:11.000Z,29
2018-04-14T05:33:11.000Z,29
2018-04-14T05:34:11.000Z,29
2018-04-14T05:35:11.000Z,29
2018-04-14T05:36:11.000Z,29.1
2018-04-14T05:38:11.000Z,29.1
2018-04-14T05:40:11.000Z,29.1
2018-04-14T05:41:55.000Z,29
2018-04-14T05:43:11.000Z,29
2018-04-14T05:45:11.000Z,29
2018-04-14T05:47:11.000Z,28.9
2018-04-14T05:49:11.000Z,28.9
2018-04-14T05:50:11.000Z,28.9
2018-04-14T05:52:11.000Z,28.9
2018-04-14T05:54:11.000Z,28.9
2018-04-14T05:55:11.000Z,29
2018-04-14T05:57:11.000Z,29
2018-04-14T05:58:55.000Z,29
2018-04-14T06:00:11.000Z,28.9
2018-04-14T06:01:11.000Z,29
2018-04-14T06:02:55.000Z,29
2018-04-14T06:04:11.000Z,29.1
2018-04-14T06:05:11.000Z,29.1
2018-04-14T06:07:11.000Z,29.2
2018-04-14T06:08:11.000Z,29.2
2018-04-14T06:10:11.000Z,29.3
2018-04-14T06:11:11.000Z,29.3
2018-04-14T06:12:55.000Z,29.4
2018-04-14T06:14:11.000Z,29.3
2018-04-14T06:15:11.000Z,29.3
2018-04-14T06:16:11.000Z,29.4
2018-04-14T06:18:11.000Z,29.4
2018-04-14T06:19:11.000Z,29.4
2018-04-14T06:21:11.000Z,29.3
2018-04-14T06:22:55.000Z,29.3
2018-04-14T06:24:11.000Z,29.3
2018-04-14T06:26:11.000Z,29.2
2018-04-14T06:27:11.000Z,29.2
2018-04-14T06:29:11.000Z,29.3
2018-04-14T06:30:11.000Z,29.3
2018-04-14T06:31:11.000Z,29.3
2018-04-14T06:33:11.000Z,29.4
2018-04-14T06:35:11.000Z,29.4
2018-04-14T06:36:11.000Z,29.4
2018-04-14T06:38:11.000Z,29.3
2018-04-14T06:40:11.000Z,29.2
2018-04-14T06:42:11.000Z,29.2
2018-04-14T06:44:11.000Z,29.2
2018-04-14T06:45:11.000Z,29.3
2018-04-14T06:47:11.000Z,29.3
2018-04-14T06:48:11.000Z,29.4
2018-04-14T06:50:11.000Z,29.4
2018-04-14T06:52:11.000Z,29.4
2018-04-14T06:54:11.000Z,29.4
2018-04-14T06:56:11.000Z,29.3
2018-04-14T06:58:11.000Z,29.3
2018-04-14T06:59:11.000Z,29.3
2018-04-14T07:01:11.000Z,29.3
2018-04-14T07:02:11.000Z,29.4
2018-04-14T07:04:11.000Z,29.4
2018-04-14T07:06:11.000Z,29.4
2018-04-14T07:07:11.000Z,29.4
2018-04-14T07:08:11.000Z,29.4
2018-04-14T07:10:11.000Z,29.5
2018-04-14T07:12:11.000Z,29.6
2018-04-14T07:13:11.000Z,29.7
2018-04-14T07:15:11.000Z,29.7
2018-04-14T07:17:11.000Z,29.7
2018-04-14T07:18:11.000Z,29.8
2018-04-14T07:20:11.000Z,29.9
2018-04-14T07:21:11.000Z,29.9
2018-04-14T07:22:11.000Z,29.9
2018-04-14T07:23:55.000Z,30
2018-04-14T07:25:11.000Z,30
2018-04-14T07:26:11.000Z,30
2018-04-14T07:27:11.000Z,30
2018-04-14T07:29:11.000Z,30
2018-04-14T07:31:11.000Z,29.9
2018-04-14T07:33:11.000Z,29.9
2018-04-14T07:35:11.000Z,29.9
2018-04-14T07:37:11.000Z,29.8
2018-04-14T07:39:11.000Z,29.8
2018-04-14T07:41:11.000Z,29.7
2018-04-14T07:43:11.000Z,29.7
2018-04-14T07:45:11.000Z,29.7
2018-04-14T07:46:11.000Z,29.7
2018-04-14T07:48:11.000Z,29.8
2018-04-14T07:49:11.000Z,29.8
2018-04-14T07:51:11.000Z,29.9
2018-04-14T07:53:11.000Z,29.8
2018-04-14T07:54:11.000Z,29.8
2018-04-14T07:55:11.000Z,29.9
2018-04-14T07:56:11.000Z,29.9
2018-04-14T07:58:11.000Z,30
2018-04-14T08:00:11.000Z,30
2018-04-14T08:01:11.000Z,30
2018-04-14T08:02:11.000Z,30.1
2018-04-14T08:04:11.000Z,30.2
2018-04-14T08:06:11.000Z,30.2
2018-04-14T08:08:11.000Z,30.2
2018-04-14T08:10:11.000Z,30.2
2018-04-14T08:12:11.000Z,30.3
2018-04-14T08:14:11.000Z,30.4
2018-04-14T08:16:11.000Z,30.5
2018-04-14T08:18:11.000Z,30.7
2018-04-14T08:20:11.000Z,30.8
2018-04-14T08:21:11.000Z,30.8
2018-04-14T08:22:11.000Z,30.9
2018-04-14T08:23:11.000Z,31
2018-04-14T08:25:11.000Z,31.2
2018-04-14T08:27:11.000Z,31.3
2018-04-14T08:28:55.000Z,31.4
2018-04-14T08:30:11.000Z,31.4
2018-04-14T08:32:11.000Z,31.6
2018-04-14T08:33:55.000Z,31.8
2018-04-14T08:35:11.000Z,31.7
2018-04-14T08:36:55.000Z,31.8
2018-04-14T08:38:11.000Z,31.8
2018-04-14T08:39:11.000Z,31.9
2018-04-14T08:40:11.000Z,32
2018-04-14T08:42:11.000Z,32.3
2018-04-14T08:43:11.000Z,32.4
2018-04-14T08:45:11.000Z,32.6
2018-04-14T08:47:11.000Z,32.6
2018-04-14T08:48:11.000Z,32.7
2018-04-14T08:50:11.000Z,32.7
2018-04-14T08:51:11.000Z,32.8
2018-04-14T08:53:11.000Z,32.8
2018-04-14T08:54:56.000Z,32.3
2018-04-14T08:56:11.000Z,32
2018-04-14T08:58:11.000Z,31.6
2018-04-14T09:00:11.000Z,31.3
2018-04-14T09:01:11.000Z,31.1
2018-04-14T09:03:11.000Z,31
2018-04-14T09:04:56.000Z,30.9
2018-04-14T09:06:11.000Z,30.7
2018-04-14T09:07:11.000Z,30.7
2018-04-14T09:09:11.000Z,30.6
2018-04-14T09:10:11.000Z,30.6
2018-04-14T09:12:11.000Z,30.5
2018-04-14T09:13:11.000Z,30.4
2018-04-14T09:15:11.000Z,30.4
2018-04-14T09:17:11.000Z,30.4
2018-04-14T09:18:11.000Z,30.4
2018-04-14T09:20:11.000Z,30.4
2018-04-14T09:22:11.000Z,30.3
2018-04-14T09:24:11.000Z,30.2
2018-04-14T09:26:11.000Z,30.1
2018-04-14T09:27:11.000Z,30.1
2018-04-14T09:28:56.000Z,30.1
2018-04-14T09:30:11.000Z,30.1
2018-04-14T09:31:11.000Z,30.2
2018-04-14T09:32:56.000Z,30.2
2018-04-14T09:34:11.000Z,30.2
2018-04-14T09:35:11.000Z,30.2
2018-04-14T09:37:11.000Z,30.2
2018-04-14T09:39:11.000Z,30.2
2018-04-14T09:40:11.000Z,30.2
2018-04-14T09:41:11.000Z,30.2
2018-04-14T09:42:11.000Z,30.2
2018-04-14T09:44:11.000Z,30.3
2018-04-14T09:46:11.000Z,30.2
2018-04-14T09:47:11.000Z,30.1
2018-04-14T09:48:56.000Z,30.1
2018-04-14T09:50:11.000Z,30.1
2018-04-14T09:51:11.000Z,30.1
2018-04-14T09:52:11.000Z,30.1
2018-04-14T09:54:11.000Z,30.2
2018-04-14T09:56:11.000Z,30.1
2018-04-14T09:57:11.000Z,30
2018-04-14T09:58:11.000Z,30
2018-04-14T10:00:11.000Z,30
2018-04-14T10:02:11.000Z,30
2018-04-14T10:03:11.000Z,30
2018-04-14T10:04:11.000Z,30.1
2018-04-14T10:05:11.000Z,30.1
2018-04-14T10:06:11.000Z,30.2
2018-04-14T10:08:11.000Z,30.2
2018-04-14T10:10:11.000Z,30.1
2018-04-14T10:12:11.000Z,30.1
2018-04-14T10:13:11.000Z,30.1
2018-04-14T10:15:11.000Z,30
2018-04-14T10:17:11.000Z,30
2018-04-14T10:19:11.000Z,29.9
2018-04-14T10:20:11.000Z,29.9
2018-04-14T10:21:11.000Z,30
2018-04-14T10:23:11.000Z,30
2018-04-14T10:25:11.000Z,29.9
2018-04-14T10:27:11.000Z,29.9
2018-04-14T10:29:11.000Z,29.8
2018-04-14T10:30:11.000Z,29.8
2018-04-14T10:31:11.000Z,29.9
2018-04-14T10:32:11.000Z,30
2018-04-14T10:34:11.000Z,30
2018-04-14T10:36:11.000Z,30
2018-04-14T10:38:11.000Z,29.9
2018-04-14T10:40:11.000Z,29.9
2018-04-14T10:42:11.000Z,29.8
2018-04-14T10:43:11.000Z,29.8
2018-04-14T10:45:11.000Z,29.8
2018-04-14T10:46:11.000Z,29.8
2018-04-14T10:47:11.000Z,29.8
2018-04-14T10:48:11.000Z,29.9
2018-04-14T10:49:56.000Z,29.9
2018-04-14T10:51:11.000Z,29.9
2018-04-14T10:53:11.000Z,29.9
2018-04-14T10:54:11.000Z,29.9
2018-04-14T10:56:11.000Z,29.9
2018-04-14T10:57:11.000Z,29.9
2018-04-14T10:58:56.000Z,29.9
2018-04-14T11:00:11.000Z,29.8
2018-04-14T11:01:11.000Z,29.8
2018-04-14T11:03:11.000Z,29.8
2018-04-14T11:05:11.000Z,29.8
2018-04-14T11:07:11.000Z,29.8
2018-04-14T11:09:11.000Z,29.8
2018-04-14T11:10:11.000Z,29.8
2018-04-14T11:11:11.000Z,29.9
2018-04-14T11:13:11.000Z,29.9
2018-04-14T11:14:11.000Z,29.9
2018-04-14T11:16:11.000Z,30
2018-04-14T11:17:11.000Z,30
2018-04-14T11:19:11.000Z,30
2018-04-14T11:20:11.000Z,30
2018-04-14T11:22:11.000Z,29.9
2018-04-14T11:23:11.000Z,29.9
2018-04-14T11:24:56.000Z,29.9
2018-04-14T11:26:11.000Z,29.9
2018-04-14T11:28:11.000Z,29.8
2018-04-14T11:30:11.000Z,29.7
2018-04-14T11:31:11.000Z,29.7
2018-04-14T11:32:11.000Z,29.7
2018-04-14T11:33:11.000Z,29.8
2018-04-14T11:34:11.000Z,29.8
2018-04-14T11:36:11.000Z,29.9
2018-04-14T11:37:11.000Z,29.9
2018-04-14T11:38:11.000Z,30
2018-04-14T11:40:11.000Z,30
2018-04-14T11:42:11.000Z,30
2018-04-14T11:44:11.000Z,29.8
2018-04-14T11:46:11.000Z,29.7
2018-04-14T11:48:11.000Z,29.6
2018-04-14T11:50:11.000Z,29.5
2018-04-14T11:52:11.000Z,29.6
2018-04-14T11:53:11.000Z,29.6
2018-04-14T11:55:11.000Z,29.6
2018-04-14T11:56:11.000Z,29.6
2018-04-14T11:58:11.000Z,29.6
2018-04-14T12:00:11.000Z,29.6
2018-04-14T12:01:11.000Z,29.6
2018-04-14T12:02:11.000Z,29.7
2018-04-14T12:04:11.000Z,29.7
2018-04-14T12:06:11.000Z,29.7
2018-04-14T12:08:11.000Z,29.7
2018-04-14T12:10:11.000Z,29.7
2018-04-14T12:11:11.000Z,29.7
2018-04-14T12:13:11.000Z,29.8
2018-04-14T12:15:11.000Z,29.8
2018-04-14T12:17:11.000Z,29.8
2018-04-14T12:18:11.000Z,29.8
2018-04-14T12:19:11.000Z,29.8
2018-04-14T12:21:11.000Z,29.8
2018-04-14T12:22:11.000Z,29.8
2018-04-14T12:23:11.000Z,29.8
2018-04-14T12:25:11.000Z,29.9
2018-04-14T12:27:11.000Z,29.9
2018-04-14T12:29:11.000Z,29.9
2018-04-14T12:31:11.000Z,29.9
2018-04-14T12:32:11.000Z,29.9
2018-04-14T12:33:11.000Z,29.9
2018-04-14T12:34:11.000Z,29.9
2018-04-14T12:36:11.000Z,30
2018-04-14T12:37:11.000Z,30
2018-04-14T12:38:11.000Z,30.1
2018-04-14T12:39:11.000Z,30.1
2018-04-14T12:40:11.000Z,30.1
2018-04-14T12:41:56.000Z,30.2
2018-04-14T12:43:11.000Z,30.2
2018-04-14T12:44:56.000Z,30.1
2018-04-14T12:46:11.000Z,30.1
2018-04-14T12:47:11.000Z,30.1
2018-04-14T12:48:56.000Z,30.1
2018-04-14T12:50:11.000Z,30.1
2018-04-14T12:51:11.000Z,30.1
2018-04-14T12:53:11.000Z,30.1
2018-04-14T12:55:11.000Z,30.1
2018-04-14T12:57:11.000Z,30.1
2018-04-14T12:59:11.000Z,30
2018-04-14T13:00:11.000Z,29.9
2018-04-14T13:01:11.000Z,30
2018-04-14T13:03:11.000Z,30.1
2018-04-14T13:04:11.000Z,30.1
2018-04-14T13:06:11.000Z,30.1
2018-04-14T13:07:56.000Z,30.1
2018-04-14T13:09:11.000Z,30
2018-04-14T13:10:11.000Z,30
2018-04-14T13:12:11.000Z,30
2018-04-14T13:13:11.000Z,30
2018-04-14T13:14:11.000Z,30.1
2018-04-14T13:15:11.000Z,30.1
2018-04-14T13:16:56.000Z,30.1
2018-04-14T13:18:11.000Z,30.1
2018-04-14T13:19:11.000Z,30.1
2018-04-14T13:21:11.000Z,30.2
2018-04-14T13:23:11.000Z,30.2
2018-04-14T13:25:11.000Z,30.1
2018-04-14T13:26:11.000Z,30.1
2018-04-14T13:28:11.000Z,30.2
2018-04-14T13:29:11.000Z,30.2
2018-04-14T13:31:11.000Z,30.5
2018-04-14T13:33:11.000Z,31.1
2018-04-14T13:34:11.000Z,31.6
2018-04-14T13:36:11.000Z,31.8
2018-04-14T13:37:11.000Z,32.1
2018-04-14T13:39:11.000Z,32.7
2018-04-14T13:41:11.000Z,32.6
2018-04-14T13:42:11.000Z,32.4
2018-04-14T13:44:11.000Z,31.9
2018-04-14T13:46:11.000Z,31.4
2018-04-14T13:47:11.000Z,31.3
2018-04-14T13:48:11.000Z,31.2
2018-04-14T13:49:11.000Z,31.1
2018-04-14T13:51:11.000Z,31
2018-04-14T13:52:11.000Z,30.9
2018-04-14T13:54:11.000Z,30.8
2018-04-14T13:55:11.000Z,30.8
2018-04-14T13:57:11.000Z,30.7
2018-04-14T13:58:11.000Z,30.7
2018-04-14T14:00:11.000Z,30.6
2018-04-14T14:02:11.000Z,30.5
2018-04-14T14:03:11.000Z,30.5
2018-04-14T14:04:56.000Z,30.5
2018-04-14T14:06:11.000Z,30.4
2018-04-14T14:07:11.000Z,30.4
2018-04-14T14:09:11.000Z,30.3
2018-04-14T14:10:11.000Z,30.3
2018-04-14T14:12:11.000Z,30.3
2018-04-14T14:14:11.000Z,30.3
2018-04-14T14:15:56.000Z,30.2
2018-04-14T14:17:11.000Z,30.2
2018-04-14T14:19:11.000Z,30.1
2018-04-14T14:20:11.000Z,30.1
2018-04-14T14:22:11.000Z,30.1
2018-04-14T14:23:11.000Z,30.1
2018-04-14T14:24:11.000Z,30.2
2018-04-14T14:25:11.000Z,30.2
2018-04-14T14:27:11.000Z,30.2
2018-04-14T14:28:11.000Z,30.2
2018-04-14T14:29:11.000Z,30.2
2018-04-14T14:30:11.000Z,30.3
2018-04-14T14:32:11.000Z,30.3
2018-04-14T14:33:11.000Z,30.3
2018-04-14T14:35:11.000Z,30.3
2018-04-14T14:37:11.000Z,30.2
2018-04-14T14:38:11.000Z,30.2
2018-04-14T14:40:11.000Z,30.1
2018-04-14T14:42:11.000Z,30.1
2018-04-14T14:43:11.000Z,30
2018-04-14T14:45:11.000Z,30.1
2018-04-14T14:46:11.000Z,30.1
2018-04-14T14:47:11.000Z,30.1
2018-04-14T14:48:11.000Z,30.2
2018-04-14T14:50:11.000Z,30.2
2018-04-14T14:51:11.000Z,30.2
2018-04-14T14:53:11.000Z,30.2
2018-04-14T14:54:11.000Z,30.2
2018-04-14T14:56:11.000Z,30.2
2018-04-14T14:57:11.000Z,30.2
2018-04-14T14:59:11.000Z,30.2
2018-04-14T15:00:11.000Z,30.2
2018-04-14T15:02:11.000Z,30.2
2018-04-14T15:04:11.000Z,30.1
2018-04-14T15:05:11.000Z,30.1
2018-04-14T15:07:11.000Z,30.1
2018-04-14T15:08:56.000Z,30.1
2018-04-14T15:10:11.000Z,30
2018-04-14T15:11:11.000Z,30
2018-04-14T15:12:56.000Z,30.1
2018-04-14T15:14:11.000Z,30
2018-04-14T15:15:11.000Z,30
2018-04-14T15:17:11.000Z,30.1
2018-04-14T15:19:11.000Z,30
2018-04-14T15:21:11.000Z,30
2018-04-14T15:22:11.000Z,30
2018-04-14T15:23:11.000Z,30
2018-04-14T15:24:56.000Z,30.1
2018-04-14T15:26:11.000Z,30
2018-04-14T15:28:11.000Z,30
2018-04-14T15:29:11.000Z,30
2018-04-14T15:30:11.000Z,30
2018-04-14T15:32:11.000Z,30.1
2018-04-14T15:33:11.000Z,30.1
2018-04-14T15:35:11.000Z,30.1
2018-04-14T15:36:11.000Z,30
2018-04-14T15:37:11.000Z,30
2018-04-14T15:38:11.000Z,30
2018-04-14T15:40:11.000Z,30
2018-04-14T15:41:11.000Z,30
2018-04-14T15:42:11.000Z,30.1
2018-04-14T15:44:11.000Z,30.1
2018-04-14T15:46:11.000Z,30.1
2018-04-14T15:47:11.000Z,30
2018-04-14T15:49:11.000Z,30
2018-04-14T15:50:11.000Z,30.1
2018-04-14T15:52:11.000Z,30.2
2018-04-14T15:53:11.000Z,30.3
2018-04-14T15:55:11.000Z,30.4
2018-04-14T15:56:11.000Z,30.4
2018-04-14T15:58:11.000Z,30.5
2018-04-14T15:59:11.000Z,30.5
2018-04-14T16:00:11.000Z,30.6
2018-04-14T16:02:11.000Z,30.7
2018-04-14T16:04:11.000Z,30.6
2018-04-14T16:06:11.000Z,30.6
2018-04-14T16:08:11.000Z,30.5
2018-04-14T16:09:11.000Z,30.5
2018-04-14T16:11:11.000Z,30.5
2018-04-14T16:12:11.000Z,30.5
2018-04-14T16:14:11.000Z,30.6
2018-04-14T16:15:11.000Z,30.6
2018-04-14T16:16:56.000Z,30.6
2018-04-14T16:18:11.000Z,30.6
2018-04-14T16:20:11.000Z,30.5
2018-04-14T16:22:11.000Z,30.5
2018-04-14T16:24:11.000Z,30.4
2018-04-14T16:26:11.000Z,30.3
2018-04-14T16:27:11.000Z,30.3
2018-04-14T16:29:11.000Z,30.3
2018-04-14T16:30:11.000Z,30.3
2018-04-14T16:31:11.000Z,30.4
2018-04-14T16:33:11.000Z,30.5
2018-04-14T16:34:11.000Z,30.5
2018-04-14T16:36:11.000Z,30.4
2018-04-14T16:38:11.000Z,30.3
2018-04-14T16:40:11.000Z,30.2
2018-04-14T16:41:11.000Z,30.2
2018-04-14T16:42:11.000Z,30.2
2018-04-14T16:43:11.000Z,30.2
2018-04-14T16:45:11.000Z,30.2
2018-04-14T16:46:11.000Z,30.2
2018-04-14T16:48:11.000Z,30.3
2018-04-14T16:50:11.000Z,30.2
2018-04-14T16:51:11.000Z,30.1
2018-04-14T16:53:11.000Z,30.2
2018-04-14T16:55:11.000Z,30.2
2018-04-14T16:57:11.000Z,30.1
2018-04-14T16:58:11.000Z,30.1
2018-04-14T16:59:11.000Z,30.1
2018-04-14T17:00:11.000Z,30.1
2018-04-14T17:02:11.000Z,30.1
2018-04-14T17:04:11.000Z,30.1
2018-04-14T17:05:11.000Z,30.1
2018-04-14T17:06:11.000Z,30.1
2018-04-14T17:08:11.000Z,30.1
2018-04-14T17:10:11.000Z,30.1
2018-04-14T17:12:11.000Z,30
2018-04-14T17:13:11.000Z,30
2018-04-14T17:14:11.000Z,30
2018-04-14T17:16:11.000Z,30
2018-04-14T17:17:11.000Z,30
2018-04-14T17:18:56.000Z,30
2018-04-14T17:20:11.000Z,30
2018-04-14T17:22:11.000Z,30
2018-04-14T17:23:11.000Z,30
2018-04-14T17:25:11.000Z,30
2018-04-14T17:27:11.000Z,29.9
2018-04-14T17:28:11.000Z,29.9
2018-04-14T17:30:11.000Z,29.9
2018-04-14T17:31:11.000Z,29.9
2018-04-14T17:32:11.000Z,29.9
2018-04-14T17:34:11.000Z,29.9
2018-04-14T17:36:11.000Z,29.9
2018-04-14T17:38:11.000Z,29.8
2018-04-14T17:40:11.000Z,29.8
2018-04-14T17:42:11.000Z,29.7
2018-04-14T17:44:11.000Z,29.6
2018-04-14T17:46:11.000Z,29.6
2018-04-14T17:47:11.000Z,29.6
2018-04-14T17:49:11.000Z,29.6
2018-04-14T17:51:11.000Z,29.6
2018-04-14T17:53:11.000Z,29.5
2018-04-14T17:54:11.000Z,29.5
2018-04-14T17:56:11.000Z,29.5
2018-04-14T17:57:11.000Z,29.6
2018-04-14T17:59:11.000Z,29.6
2018-04-14T18:01:11.000Z,29.5
2018-04-14T18:03:11.000Z,29.5
2018-04-14T18:05:11.000Z,29.4
2018-04-14T18:06:11.000Z,29.4
2018-04-14T18:08:11.000Z,29.4
2018-04-14T18:09:11.000Z,29.5
2018-04-14T18:11:11.000Z,29.5
2018-04-14T18:13:11.000Z,29.5
2018-04-14T18:15:11.000Z,29.5
2018-04-14T18:16:11.000Z,29.5
2018-04-14T18:18:11.000Z,29.5
2018-04-14T18:19:56.000Z,29.5
2018-04-14T18:21:11.000Z,29.4
2018-04-14T18:22:11.000Z,29.4
2018-04-14T18:24:11.000Z,29.4
2018-04-14T18:26:11.000Z,29.4
2018-04-14T18:27:11.000Z,29.3
2018-04-14T18:29:11.000Z,29.3
2018-04-14T18:30:11.000Z,29.3
2018-04-14T18:31:11.000Z,29.4
2018-04-14T18:33:11.000Z,29.4
2018-04-14T18:34:56.000Z,29.4
2018-04-14T18:36:11.000Z,29.4
2018-04-14T18:38:11.000Z,29.4
2018-04-14T18:40:11.000Z,29.4
2018-04-14T18:41:11.000Z,29.4
2018-04-14T18:42:11.000Z,29.4
2018-04-14T18:44:11.000Z,29.5
2018-04-14T18:45:11.000Z,29.5
2018-04-14T18:46:11.000Z,29.5
2018-04-14T18:47:11.000Z,29.6
2018-04-14T18:49:11.000Z,29.6
2018-04-14T18:50:11.000Z,29.6
2018-04-14T18:52:11.000Z,29.6
2018-04-14T18:53:11.000Z,29.6
2018-04-14T18:54:11.000Z,29.6
2018-04-14T18:56:11.000Z,29.6
2018-04-14T18:58:11.000Z,29.6
2018-04-14T18:59:11.000Z,29.6
2018-04-14T19:00:11.000Z,29.6
2018-04-14T19:01:11.000Z,29.6
2018-04-14T19:03:11.000Z,29.6
2018-04-14T19:05:11.000Z,29.6
2018-04-14T19:06:11.000Z,29.5
2018-04-14T19:08:11.000Z,29.5
2018-04-14T19:09:11.000Z,29.5
2018-04-14T19:11:11.000Z,29.5
2018-04-14T19:12:11.000Z,29.5
2018-04-14T19:13:11.000Z,29.5
2018-04-14T19:15:11.000Z,29.5
2018-04-14T19:16:11.000Z,29.5
2018-04-14T19:18:11.000Z,29.5
2018-04-14T19:20:11.000Z,29.5
2018-04-14T19:22:11.000Z,29.4
2018-04-14T19:24:11.000Z,29.3
2018-04-14T19:25:11.000Z,29.3
2018-04-14T19:27:11.000Z,29.3
2018-04-14T19:29:11.000Z,29.3
2018-04-14T19:31:11.000Z,29.2
2018-04-14T19:32:11.000Z,29.2
2018-04-14T19:33:11.000Z,29.3
2018-04-14T19:34:11.000Z,29.3
2018-04-14T19:36:11.000Z,29.3
2018-04-14T19:38:11.000Z,29.3
2018-04-14T19:40:11.000Z,29.3
2018-04-14T19:42:11.000Z,29.2
2018-04-14T19:43:11.000Z,29.2
2018-04-14T19:45:11.000Z,29.2
2018-04-14T19:46:11.000Z,29.3
2018-04-14T19:47:11.000Z,29.3
2018-04-14T19:49:11.000Z,29.4
2018-04-14T19:50:11.000Z,29.4
2018-04-14T19:51:11.000Z,29.4
2018-04-14T19:52:11.000Z,29.5
2018-04-14T19:54:11.000Z,29.5
2018-04-14T19:56:11.000Z,29.4
2018-04-14T19:58:11.000Z,29.3
2018-04-14T19:59:11.000Z,29.3
2018-04-14T20:01:11.000Z,29.2
2018-04-14T20:02:11.000Z,29.2
2018-04-14T20:04:11.000Z,29.2
2018-04-14T20:06:11.000Z,29.2
2018-04-14T20:07:11.000Z,29.2
2018-04-14T20:09:11.000Z,29.3
2018-04-14T20:10:11.000Z,29.3
2018-04-14T20:12:11.000Z,29.3
2018-04-14T20:14:11.000Z,29.3
2018-04-14T20:15:56.000Z,29.3
2018-04-14T20:17:11.000Z,29.2
2018-04-14T20:19:11.000Z,29.2
2018-04-14T20:20:11.000Z,29.2
2018-04-14T20:21:11.000Z,29.3
2018-04-14T20:23:11.000Z,29.3
2018-04-14T20:25:11.000Z,29.2
2018-04-14T20:26:56.000Z,29.2
2018-04-14T20:28:11.000Z,29.2
2018-04-14T20:29:11.000Z,29.2
2018-04-14T20:31:11.000Z,29.2
2018-04-14T20:32:11.000Z,29.2
2018-04-14T20:34:11.000Z,29.3
2018-04-14T20:35:11.000Z,29.3
2018-04-14T20:36:11.000Z,29.3
2018-04-14T20:38:11.000Z,29.3
2018-04-14T20:39:11.000Z,29.3
2018-04-14T20:41:11.000Z,29.3